Macon, Tennessee
Current Conditions -  °F | °C
As of 2:35 AM on Monday 22 Dec 2014 (Local Time) from KOLV Reporting Station
Overcast Overcast  
Wind Chill: 38°   Ceiling: 200
Heat Index: 43°   Visibility: 1.7mi
Dew Point: 43°   Wind: 8mph
Humidity: 100%   Direction: 160°SSE
Pressure: 29.9"   Gusts: NA
Location:  35.15°N, 89.49°W
Report Text: KOLV 220835Z AUTO 16007KT 1 3/4SM OVC002 06/06 A2990 RMK A01 P000
Loading
Personal Weather Stations






























Interactive Weather Map New forecast layout! Learn more

10-Day Weather Forecast

Advertisements
Track Severe Weather on mobile